Time;durP1;ratioP1;P1;durP2;ratioP2;P2;SDS_P1;SDS_P2;PMS_P1;PMS_P2;Temp;Humidity;BMP_temperature;BMP_pressure;BME280_temperature;BME280_humidity;BME280_pressure;Samples;Min_cycle;Max_cycle;Signal;HPM_P1;HPM_P2
2023/07/12 00:01:55;;;;;;;2.40;1.20;;;24.20;99.90;;;24.55;97.93;100250.53;5221162;28;20502;-51
2023/07/12 00:04:27;;;;;;;3.53;1.20;;;24.10;99.90;;;24.46;97.89;100256.16;5221455;28;20171;-50
2023/07/12 00:07:00;;;;;;;4.25;1.15;;;24.00;99.90;;;24.38;98.58;100254.63;5220688;28;20040;-51
2023/07/12 00:09:32;;;;;;;1.95;1.35;;;23.90;99.90;;;24.32;98.59;100258.31;5220355;28;20048;-51
2023/07/12 00:12:05;;;;;;;4.93;1.48;;;23.80;99.90;;;24.30;98.52;100249.50;5220576;28;20052;-50
2023/07/12 00:14:39;;;;;;;1.10;0.90;;;23.80;99.90;;;24.30;97.90;100254.81;5222032;28;20041;-51
2023/07/12 00:17:11;;;;;;;1.80;1.13;;;23.80;99.90;;;24.27;97.12;100257.59;5221757;28;20110;-51
2023/07/12 00:19:47;;;;;;;1.63;1.23;;;23.70;99.90;;;24.26;96.53;100263.84;5220939;28;20122;-51
2023/07/12 00:22:19;;;;;;;1.77;0.90;;;23.70;99.90;;;24.23;96.01;100253.25;5221422;28;20053;-50
2023/07/12 00:24:51;;;;;;;1.10;1.00;;;23.70;99.90;;;24.20;95.96;100261.34;5217316;28;20169;-50
2023/07/12 00:27:24;;;;;;;1.92;1.00;;;23.60;99.90;;;24.17;96.14;100258.78;5221050;28;20037;-50
2023/07/12 00:29:58;;;;;;;3.10;1.30;;;23.60;99.90;;;24.14;96.42;100262.41;5220741;28;20057;-51
2023/07/12 00:32:30;;;;;;;4.22;1.30;;;23.60;99.90;;;24.12;96.46;100263.34;5221210;28;20095;-50
2023/07/12 00:35:03;;;;;;;1.52;0.95;;;23.60;99.90;;;24.14;96.67;100280.19;5221209;28;20064;-50
2023/07/12 00:37:35;;;;;;;2.47;1.15;;;23.60;99.90;;;24.15;97.01;100271.25;5220400;28;20473;-50
2023/07/12 00:40:50;;;;;;;1.50;0.82;;;23.50;99.90;;;24.16;96.98;100288.97;5220728;28;20522;-51
2023/07/12 00:43:29;;;;;;;1.17;1.00;;;23.60;99.90;;;24.12;97.43;100289.97;5201827;28;20037;-50
2023/07/12 00:46:13;;;;;;;1.77;1.00;;;23.50;99.90;;;24.12;98.07;100292.63;5220872;28;20045;-50
2023/07/12 00:48:47;;;;;;;1.27;0.90;;;23.50;99.90;;;24.14;97.61;100305.00;5221158;28;20104;-50
2023/07/12 00:51:33;;;;;;;1.45;0.80;;;23.60;99.90;;;24.12;97.59;100306.81;5220531;28;20398;-51
2023/07/12 00:54:12;;;;;;;2.47;1.10;;;23.50;99.90;;;24.09;97.68;100299.81;5220808;28;20047;-50
2023/07/12 00:56:45;;;;;;;2.08;1.27;;;23.50;99.90;;;24.09;97.17;100299.81;5220947;28;20036;-50
2023/07/12 00:59:22;;;;;;;1.83;1.05;;;23.50;99.90;;;24.07;96.98;100312.28;5221143;28;20118;-50
2023/07/12 01:02:00;;;;;;;2.42;1.20;;;23.40;99.90;;;24.01;96.87;100317.78;5219744;28;20161;-50
2023/07/12 01:04:37;;;;;;;1.92;0.90;;;23.40;99.90;;;24.04;97.26;100301.72;5221345;28;20527;-51
2023/07/12 01:07:11;;;;;;;1.65;1.00;;;23.40;99.90;;;24.08;96.88;100295.41;5220633;28;20052;-50
2023/07/12 01:09:44;;;;;;;0.98;0.70;;;23.50;99.90;;;24.15;96.93;100292.56;5220437;28;20045;-50
2023/07/12 01:12:17;;;;;;;4.00;0.98;;;23.50;99.90;;;24.15;96.41;100284.56;5220759;28;20052;-51
2023/07/12 01:14:50;;;;;;;2.50;1.20;;;23.50;99.90;;;24.15;96.29;100287.25;5221198;28;20044;-51
2023/07/12 01:17:24;;;;;;;4.75;1.40;;;23.60;99.90;;;24.20;96.44;100277.34;5220819;28;20452;-50
2023/07/12 01:19:59;;;;;;;1.10;1.00;;;23.60;99.90;;;24.21;96.25;100289.72;5220094;28;20464;-51
2023/07/12 01:22:33;;;;;;;1.48;0.90;;;23.60;99.90;;;24.22;96.04;100295.00;5220633;28;20056;-51
2023/07/12 01:25:09;;;;;;;1.63;0.90;;;23.60;99.90;;;24.21;95.79;100287.06;5220402;28;20044;-50
2023/07/12 01:27:42;;;;;;;1.98;1.00;;;23.60;99.90;;;24.19;96.33;100302.19;5220491;28;20056;-51
2023/07/12 01:30:19;;;;;;;1.42;0.82;;;23.60;99.90;;;24.16;96.42;100299.63;5220510;28;20045;-51
2023/07/12 01:32:53;;;;;;;1.90;0.90;;;23.50;99.90;;;24.07;96.45;100306.97;5220544;28;20049;-50
2023/07/12 01:35:26;;;;;;;;;;;23.50;99.90;;;24.00;96.68;100302.75;5221307;28;20056;-51
2023/07/12 01:38:01;;;;;;;1.13;0.95;;;23.40;99.90;;;24.01;96.90;100304.47;5220363;28;20349;-50
2023/07/12 01:40:33;;;;;;;3.63;1.10;;;23.40;99.90;;;24.01;96.96;100284.97;5220458;28;20045;-50
2023/07/12 01:43:06;;;;;;;1.30;0.90;;;23.40;99.90;;;23.98;96.74;100269.94;5220711;28;20045;-50
2023/07/12 01:45:38;;;;;;;1.70;0.90;;;23.40;99.90;;;23.98;96.94;100267.28;5220568;28;20051;-50
2023/07/12 01:48:10;;;;;;;0.98;0.80;;;23.30;99.90;;;23.99;96.95;100271.69;5221310;28;20699;-50
2023/07/12 01:50:43;;;;;;;0.93;0.80;;;23.30;99.90;;;23.97;97.27;100276.19;5224147;28;20041;-51
2023/07/12 01:53:17;;;;;;;1.08;1.00;;;23.40;99.90;;;23.96;98.35;100273.56;5224278;28;20514;-50
2023/07/12 01:55:49;;;;;;;1.27;0.88;;;23.30;99.90;;;23.94;98.82;100278.09;5224087;28;20041;-51
2023/07/12 01:58:22;;;;;;;1.05;0.90;;;23.30;99.90;;;23.92;98.87;100286.09;5224371;28;20135;-51
2023/07/12 02:00:55;;;;;;;0.98;0.75;;;23.30;99.90;;;23.91;99.49;100271.03;5223921;28;20052;-50
2023/07/12 02:03:28;;;;;;;2.00;0.80;;;23.30;99.90;;;23.92;99.57;100264.78;5224620;28;20059;-51
2023/07/12 02:06:00;;;;;;;1.05;0.93;;;23.30;99.90;;;23.89;99.07;100275.53;5224020;28;20037;-50
2023/07/12 02:08:34;;;;;;;0.80;0.80;;;23.30;99.90;;;23.87;99.04;100288.03;5224005;28;20041;-51
2023/07/12 02:11:06;;;;;;;0.82;0.82;;;23.30;99.90;;;23.87;99.66;100300.47;5223592;28;20482;-50
2023/07/12 02:13:39;;;;;;;1.58;1.00;;;23.20;99.90;;;23.87;99.45;100309.31;5224308;28;20352;-50
2023/07/12 02:16:11;;;;;;;1.20;0.90;;;23.20;99.90;;;23.88;99.55;100321.72;5223672;28;20059;-50
2023/07/12 02:18:44;;;;;;;2.45;0.90;;;23.30;99.90;;;23.89;99.45;100319.91;5223932;28;20049;-50
2023/07/12 02:21:16;;;;;;;2.45;0.98;;;23.30;99.90;;;23.87;99.34;100298.69;5223394;28;20063;-50
2023/07/12 02:23:50;;;;;;;1.58;1.02;;;23.20;99.90;;;23.85;99.31;100300.47;5224754;28;20053;-51
2023/07/12 02:26:24;;;;;;;1.63;1.02;;;23.20;99.90;;;23.83;99.46;100308.50;5223816;28;20532;-50
2023/07/12 02:28:57;;;;;;;1.73;0.80;;;23.20;99.90;;;23.82;99.59;100300.59;5223725;28;20049;-50
2023/07/12 02:31:31;;;;;;;2.05;1.10;;;23.20;99.90;;;23.79;99.88;100301.53;5224560;28;20041;-50
2023/07/12 02:34:04;;;;;;;0.80;0.75;;;23.10;99.90;;;23.79;100.00;100317.47;5223691;28;20561;-51
2023/07/12 02:36:36;;;;;;;1.85;0.90;;;23.10;99.90;;;23.82;100.00;100324.53;5223621;28;20067;-51
2023/07/12 02:39:10;;;;;;;2.05;1.02;;;23.20;99.90;;;23.79;100.00;100321.94;5223055;28;20434;-51
2023/07/12 02:41:42;;;;;;;2.63;1.05;;;23.20;99.90;;;23.73;100.00;100330.97;5223058;28;20041;-50
2023/07/12 02:44:15;;;;;;;3.33;0.95;;;23.20;99.90;;;23.65;100.00;100348.03;5223091;28;20063;-50
2023/07/12 02:46:47;;;;;;;1.55;0.98;;;23.10;99.90;;;23.60;100.00;100315.31;5223280;28;20514;-50
2023/07/12 02:49:20;;;;;;;2.25;1.20;;;23.00;99.90;;;23.60;100.00;100331.28;5223381;28;20041;-50
2023/07/12 02:51:52;;;;;;;2.72;1.10;;;23.00;99.90;;;23.56;100.00;100362.44;5222752;28;20505;-50
2023/07/12 02:54:29;;;;;;;5.32;1.38;;;23.00;99.90;;;23.43;100.00;100371.63;5223186;28;20051;-50
2023/07/12 02:57:04;;;;;;;2.60;1.35;;;22.90;99.90;;;23.33;100.00;100412.66;5223282;28;20045;-50
2023/07/12 02:59:36;;;;;;;;;;;22.90;99.90;;;23.26;100.00;100396.84;5222594;28;20494;-51
2023/07/12 03:02:10;;;;;;;3.33;1.15;;;22.80;99.90;;;23.20;100.00;100342.94;5222879;28;19955;-51
2023/07/12 03:04:43;;;;;;;2.28;1.33;;;22.70;99.90;;;23.07;100.00;100347.66;5223224;28;20044;-50
2023/07/12 03:07:15;;;;;;;3.17;1.40;;;22.60;99.90;;;22.94;100.00;100364.81;5222763;28;20052;-51
2023/07/12 03:09:49;;;;;;;2.45;1.40;;;22.50;99.90;;;22.84;100.00;100372.09;5222789;28;20041;-51
2023/07/12 03:12:24;;;;;;;2.38;1.73;;;22.40;99.90;;;22.75;100.00;100381.13;5223111;28;20800;-51
2023/07/12 03:14:57;;;;;;;2.00;1.20;;;22.30;99.90;;;22.73;100.00;100369.66;5222772;28;20049;-50
2023/07/12 03:17:30;;;;;;;1.10;1.00;;;22.20;99.90;;;22.70;100.00;100371.53;5222920;28;20041;-51
2023/07/12 03:20:02;;;;;;;2.75;0.90;;;22.20;99.90;;;22.66;100.00;100378.66;5222109;28;20060;-50
2023/07/12 03:22:34;;;;;;;2.55;1.20;;;22.10;99.90;;;22.64;100.00;100379.63;5222797;28;20037;-51
2023/07/12 03:25:09;;;;;;;2.85;1.30;;;22.10;99.90;;;22.59;100.00;100397.44;5222606;28;20647;-51
2023/07/12 03:27:41;;;;;;;2.78;1.10;;;22.00;99.90;;;22.55;100.00;100411.66;5222511;28;20541;-51
2023/07/12 03:30:17;;;;;;;3.72;1.48;;;22.00;99.90;;;22.46;100.00;100403.00;5222307;28;20052;-51
2023/07/12 03:32:49;;;;;;;5.18;1.60;;;22.00;99.90;;;22.18;100.00;100407.97;5222810;28;20052;-50
2023/07/12 03:35:22;;;;;;;3.58;1.23;;;21.80;99.90;;;21.91;100.00;100411.09;5222276;28;20102;-50
2023/07/12 03:37:55;;;;;;;3.25;1.20;;;21.50;99.90;;;21.71;100.00;100416.72;5222089;28;20037;-51
2023/07/12 03:40:28;;;;;;;2.85;1.15;;;21.40;99.90;;;21.57;100.00;100424.03;5222522;28;20052;-50
2023/07/12 03:43:01;;;;;;;2.95;1.10;;;21.20;99.90;;;21.52;100.00;100417.97;5222193;28;20055;-50
2023/07/12 03:45:33;;;;;;;2.17;1.02;;;21.10;99.90;;;21.52;100.00;100444.47;5222506;28;20406;-51
2023/07/12 03:48:06;;;;;;;1.42;1.13;;;21.10;99.90;;;21.51;100.00;100459.47;5221927;28;20053;-50
2023/07/12 03:50:39;;;;;;;3.38;1.00;;;21.00;99.90;;;21.44;100.00;100470.22;5221927;28;20091;-50
2023/07/12 03:53:12;;;;;;;2.67;1.10;;;21.00;99.90;;;21.38;100.00;100473.81;5222416;28;20044;-50
2023/07/12 03:55:47;;;;;;;3.30;1.38;;;20.90;99.90;;;21.35;100.00;100466.81;5222433;28;20044;-50
2023/07/12 03:58:28;;;;;;;2.75;1.08;;;20.90;99.90;;;21.38;100.00;100453.50;5222066;28;20071;-50
2023/07/12 04:01:04;;;;;;;1.48;1.00;;;20.90;99.90;;;21.35;100.00;100456.19;5221640;28;20052;-50
2023/07/12 04:03:37;;;;;;;2.13;0.90;;;20.90;99.90;;;21.28;100.00;100449.25;5221975;28;20080;-51
2023/07/12 04:06:12;;;;;;;0.90;0.70;;;20.90;99.90;;;21.30;100.00;100447.44;5221542;28;20044;-50
2023/07/12 04:08:44;;;;;;;1.17;0.80;;;20.90;99.90;;;21.28;100.00;100462.50;5221775;28;20032;-50
2023/07/12 04:11:25;;;;;;;2.63;1.20;;;20.80;99.90;;;21.25;100.00;100475.72;5220865;28;20410;-50
2023/07/12 04:14:01;;;;;;;3.00;1.10;;;20.80;99.90;;;21.26;100.00;100485.47;5221624;28;20053;-50
2023/07/12 04:16:36;;;;;;;2.60;1.00;;;20.80;99.90;;;21.22;100.00;100464.31;5221770;28;20064;-50
2023/07/12 04:19:09;;;;;;;2.38;0.90;;;20.80;99.90;;;21.23;100.00;100440.44;5221325;28;20045;-50
2023/07/12 04:21:41;;;;;;;3.13;1.05;;;20.80;99.90;;;21.26;100.00;100458.09;5221443;28;20053;-50
2023/07/12 04:24:13;;;;;;;1.30;0.70;;;20.80;99.90;;;21.31;100.00;100465.09;5221502;28;20049;-50
2023/07/12 04:26:49;;;;;;;1.30;0.75;;;20.80;99.90;;;21.32;100.00;100445.66;5221959;28;20374;-50
2023/07/12 04:29:22;;;;;;;1.20;0.73;;;20.80;99.90;;;21.33;100.00;100438.56;5221302;28;20110;-50
2023/07/12 04:31:54;;;;;;;1.00;0.75;;;20.80;99.90;;;21.33;100.00;100431.50;5221430;28;20049;-50
2023/07/12 04:34:29;;;;;;;1.48;0.80;;;20.80;99.90;;;21.34;100.00;100429.72;5221106;28;20098;-50
2023/07/12 04:37:02;;;;;;;0.93;0.70;;;20.80;99.90;;;21.33;100.00;100442.09;5221106;28;20052;-50
2023/07/12 04:39:34;;;;;;;1.15;0.75;;;20.80;99.90;;;21.28;100.00;100435.97;5221448;28;20052;-50
2023/07/12 04:42:08;;;;;;;0.80;0.70;;;20.80;99.90;;;21.27;100.00;100430.69;5220350;28;20056;-50
2023/07/12 04:44:41;;;;;;;0.95;0.50;;;20.80;99.90;;;21.25;100.00;100449.22;5220783;28;20608;-50
2023/07/12 04:47:15;;;;;;;1.67;0.77;;;20.70;99.90;;;21.26;100.00;100463.38;5220448;28;20116;-50
2023/07/12 04:49:48;;;;;;;0.93;0.60;;;20.70;99.90;;;21.29;100.00;100464.25;5220426;28;20044;-50
2023/07/12 04:52:20;;;;;;;1.33;0.70;;;20.70;99.90;;;21.38;100.00;100466.75;5220199;28;20064;-50
2023/07/12 04:54:58;;;;;;;2.03;0.88;;;20.80;99.90;;;21.51;100.00;100461.25;5220781;28;20084;-50
2023/07/12 04:57:33;;;;;;;1.20;0.90;;;20.90;99.90;;;21.74;100.00;100450.31;5218273;28;20076;-50
2023/07/12 05:00:07;;;;;;;1.27;0.80;;;21.10;99.90;;;22.09;100.00;100461.22;5221403;28;20106;-50
2023/07/12 05:02:42;;;;;;;1.85;0.70;;;21.40;99.90;;;22.41;100.00;100465.94;5221304;28;20052;-51
2023/07/12 05:05:15;;;;;;;0.95;0.70;;;21.70;99.90;;;22.69;100.00;100483.97;5220310;28;20049;-50
2023/07/12 05:07:48;;;;;;;2.00;0.60;;;22.00;99.90;;;23.11;100.00;100471.63;5220227;28;20045;-50
2023/07/12 05:10:20;;;;;;;1.95;0.82;;;22.30;99.90;;;23.50;100.00;100483.16;5219459;28;20533;-50
2023/07/12 05:12:54;;;;;;;1.13;0.73;;;22.70;99.90;;;23.72;100.00;100480.00;5220321;28;20063;-50
2023/07/12 05:15:27;;;;;;;0.93;0.68;;;23.00;99.90;;;23.76;100.00;100484.38;5218412;28;20514;-50
2023/07/12 05:17:59;;;;;;;1.05;0.60;;;23.10;99.90;;;23.67;100.00;100492.53;5196459;28;20048;-50
2023/07/12 05:20:32;;;;;;;1.05;0.70;;;23.10;99.90;;;23.52;100.00;100491.09;5204392;28;20056;-50
2023/07/12 05:23:04;;;;;;;1.15;0.65;;;23.00;99.90;;;23.34;100.00;100499.50;5201277;28;20061;-51
2023/07/12 05:25:36;;;;;;;1.60;0.60;;;22.80;99.90;;;23.09;100.00;100499.19;5204650;28;20051;-50
2023/07/12 05:28:10;;;;;;;1.23;0.68;;;22.60;99.90;;;22.84;100.00;100504.09;5221072;28;20068;-50
2023/07/12 05:30:43;;;;;;;1.92;0.70;;;22.40;99.90;;;22.63;100.00;100508.03;5205463;28;20056;-50
2023/07/12 05:33:16;;;;;;;1.77;0.60;;;22.20;99.90;;;22.53;100.00;100512.63;5220518;28;20045;-50
2023/07/12 05:35:48;;;;;;;1.83;0.80;;;22.00;99.90;;;22.44;100.00;100513.69;5221296;28;20049;-50
2023/07/12 05:38:21;;;;;;;1.70;0.70;;;21.90;99.90;;;22.37;100.00;100519.16;5220622;28;20049;-51
2023/07/12 05:40:53;;;;;;;1.23;0.63;;;21.90;99.90;;;22.25;100.00;100514.94;5220562;28;20479;-50
2023/07/12 05:43:27;;;;;;;0.73;0.50;;;21.80;99.90;;;22.17;100.00;100515.06;5204186;28;20046;-50
2023/07/12 05:45:59;;;;;;;0.55;0.50;;;21.70;99.90;;;22.10;100.00;100524.00;5221009;28;20049;-50
2023/07/12 05:48:32;;;;;;;0.65;0.50;;;21.70;99.90;;;22.04;100.00;100533.81;5203857;28;20048;-50
2023/07/12 05:51:04;;;;;;;0.98;0.60;;;21.60;99.90;;;21.97;100.00;100535.69;5220440;28;20056;-50
2023/07/12 05:53:37;;;;;;;0.70;0.60;;;21.50;99.90;;;21.90;100.00;100540.22;5203823;28;20061;-50
2023/07/12 05:56:09;;;;;;;0.98;0.70;;;21.40;99.90;;;21.85;100.00;100546.53;5220625;28;20136;-50
2023/07/12 05:58:46;;;;;;;1.77;0.52;;;21.40;99.90;;;21.84;100.00;100550.06;5220684;28;20045;-51
2023/07/12 06:01:19;;;;;;;2.22;0.68;;;21.30;99.90;;;21.84;100.00;100547.41;5220114;28;20053;-50
2023/07/12 06:03:52;;;;;;;0.77;0.40;;;21.30;99.90;;;21.83;100.00;100565.09;5203807;28;20045;-49
2023/07/12 06:06:28;;;;;;;0.80;0.57;;;21.30;99.90;;;21.83;100.00;100570.41;5220223;28;20111;-49
2023/07/12 06:09:00;;;;;;;1.50;0.73;;;21.30;99.90;;;21.81;100.00;100569.56;5220256;28;20050;-49
2023/07/12 06:11:33;;;;;;;1.02;0.60;;;21.30;99.90;;;21.76;100.00;100568.75;5219963;28;20049;-50
2023/07/12 06:14:06;;;;;;;0.65;0.50;;;21.30;99.90;;;21.68;100.00;100560.91;5220327;28;20091;-49
2023/07/12 06:16:39;;;;;;;1.33;0.55;;;21.20;99.90;;;21.72;100.00;100572.38;5203775;28;20268;-49
2023/07/12 06:19:11;;;;;;;1.20;0.50;;;21.20;99.90;;;21.80;100.00;100565.16;5220267;28;20048;-49
2023/07/12 06:21:44;;;;;;;0.70;0.43;;;21.20;99.90;;;21.91;100.00;100568.53;5219902;28;20056;-49
2023/07/12 06:24:16;;;;;;;0.90;0.65;;;21.40;99.90;;;21.95;100.00;100567.56;5219854;28;20045;-49
2023/07/12 06:26:49;;;;;;;0.75;0.50;;;21.40;99.90;;;21.91;100.00;100565.00;5219941;28;20068;-50
2023/07/12 06:29:24;;;;;;;1.30;0.70;;;21.40;99.90;;;21.85;100.00;100573.94;5219554;28;20446;-50
2023/07/12 06:31:56;;;;;;;0.98;0.63;;;21.30;99.90;;;21.81;100.00;100576.66;5203053;28;20045;-49
2023/07/12 06:34:32;;;;;;;0.55;0.50;;;21.30;99.90;;;21.75;100.00;100577.59;5203032;28;20053;-49
2023/07/12 06:37:05;;;;;;;1.10;0.55;;;21.30;99.90;;;21.69;100.00;100577.69;5219598;28;20050;-50
2023/07/12 06:39:37;;;;;;;0.60;0.47;;;21.20;99.90;;;21.68;100.00;100567.97;5202912;28;20037;-50
2023/07/12 06:42:10;;;;;;;1.25;0.60;;;21.20;99.90;;;21.70;100.00;100574.13;5202770;28;20064;-50
2023/07/12 06:44:47;;;;;;;0.95;0.50;;;21.20;99.90;;;21.75;100.00;100569.66;5203566;28;20049;-50
2023/07/12 06:47:19;;;;;;;1.38;0.60;;;21.20;99.90;;;21.93;100.00;100572.03;5203102;28;20057;-50
2023/07/12 06:49:53;;;;;;;2.25;0.80;;;21.30;99.90;;;22.19;100.00;100573.44;5202788;28;20545;-51
2023/07/12 06:52:25;;;;;;;0.77;0.63;;;21.50;99.90;;;22.41;100.00;100577.47;5219385;28;20060;-50
2023/07/12 06:54:57;;;;;;;1.35;0.63;;;21.70;99.90;;;22.55;100.00;100576.34;5219781;28;20412;-50
2023/07/12 06:57:30;;;;;;;0.82;0.60;;;21.90;99.90;;;22.60;100.00;100574.50;5202459;28;20060;-50
2023/07/12 07:00:08;;;;;;;1.60;0.60;;;22.00;99.90;;;22.65;100.00;100577.94;5203152;28;20050;-47
2023/07/12 07:02:41;;;;;;;0.73;0.65;;;22.00;99.90;;;22.67;100.00;100571.69;5203563;28;20045;-48
2023/07/12 07:05:13;;;;;;;1.70;0.63;;;22.10;99.90;;;22.73;100.00;100579.56;5203416;28;20057;-47
2023/07/12 07:07:45;;;;;;;0.80;0.60;;;22.10;99.90;;;22.77;100.00;100583.03;5203163;28;20095;-48
2023/07/12 07:10:19;;;;;;;1.17;0.80;;;22.20;99.90;;;22.76;100.00;100581.28;5203595;28;20042;-48
2023/07/12 07:12:51;;;;;;;1.02;0.60;;;22.20;99.90;;;22.74;100.00;100583.97;5203090;28;20054;-48
2023/07/12 07:15:25;;;;;;;1.77;0.75;;;22.20;99.90;;;22.71;100.00;100584.03;5218987;28;20072;-48
2023/07/12 07:17:57;;;;;;;1.40;0.70;;;22.20;99.90;;;22.67;100.00;100584.09;5202814;28;20518;-48
2023/07/12 07:20:30;;;;;;;1.15;0.80;;;22.10;99.90;;;22.64;100.00;100581.50;5202950;28;20110;-48
2023/07/12 07:23:03;;;;;;;2.40;1.05;;;22.10;99.90;;;22.59;100.00;100594.00;5202793;28;20053;-48
2023/07/12 07:25:35;;;;;;;1.08;0.82;;;22.10;99.90;;;22.60;100.00;100603.72;5202655;28;20049;-47
2023/07/12 07:28:08;;;;;;;1.17;0.80;;;22.00;99.90;;;22.60;100.00;100607.25;5202492;28;20053;-49
2023/07/12 07:30:41;;;;;;;2.13;0.93;;;22.00;99.90;;;22.60;100.00;100609.03;5202484;28;20061;-48
2023/07/12 07:33:14;;;;;;;0.57;0.57;;;22.00;99.90;;;22.61;100.00;100611.66;5202572;28;20042;-47
2023/07/12 07:35:47;;;;;;;1.15;0.73;;;22.10;99.90;;;22.77;100.00;100614.94;5202677;28;20049;-47
2023/07/12 07:38:19;;;;;;;0.90;0.70;;;22.20;99.90;;;23.11;100.00;100620.50;5202343;28;20033;-47
2023/07/12 07:40:52;;;;;;;9.27;0.90;;;22.40;99.90;;;23.45;100.00;100620.69;5219318;28;20053;-47
2023/07/12 07:43:24;;;;;;;2.70;1.10;;;22.70;99.90;;;23.80;98.91;100627.09;5202427;28;20056;-47
2023/07/12 07:45:58;;;;;;;1.55;0.93;;;23.00;99.90;;;24.02;96.50;100617.69;5202005;28;20469;-48
2023/07/12 07:48:30;;;;;;;2.45;0.90;;;23.30;99.90;;;24.12;94.64;100621.00;5202236;28;20052;-47
2023/07/12 07:51:03;;;;;;;2.30;0.60;;;23.40;99.90;;;24.09;94.51;100624.63;5202378;28;20050;-48
2023/07/12 07:53:36;;;;;;;3.08;0.90;;;23.40;99.90;;;24.01;94.45;100623.94;5202186;28;20124;-48
2023/07/12 07:56:08;;;;;;;2.10;1.00;;;23.40;99.90;;;23.88;93.78;100619.81;5202229;28;20046;-48
2023/07/12 07:58:40;;;;;;;1.58;0.90;;;23.30;99.90;;;23.78;93.58;100619.13;5202308;28;20060;-47
2023/07/12 08:01:14;;;;;;;1.55;0.80;;;23.30;99.90;;;23.78;92.99;100623.56;5201923;28;20140;-47
2023/07/12 08:03:47;;;;;;;3.28;0.90;;;23.20;99.80;;;23.69;93.06;100619.34;5202203;28;20041;-47
2023/07/12 08:06:19;;;;;;;1.85;1.02;;;23.20;99.80;;;23.66;93.00;100618.53;5201895;28;20049;-48
2023/07/12 08:08:53;;;;;;;1.85;0.77;;;23.10;99.70;;;23.42;93.70;100615.47;5201837;28;20060;-48
2023/07/12 08:11:25;;;;;;;2.13;1.10;;;23.00;99.90;;;23.24;95.06;100619.38;5201417;28;20053;-48
2023/07/12 08:13:58;;;;;;;2.30;0.90;;;22.80;99.90;;;23.21;95.72;100614.13;5201701;28;20046;-48
2023/07/12 08:16:33;;;;;;;1.95;1.00;;;22.70;99.90;;;23.28;96.01;100612.22;5201711;28;20046;-48
2023/07/12 08:19:05;;;;;;;2.30;0.90;;;22.70;99.90;;;23.38;95.69;100619.06;5218290;28;20450;-48
2023/07/12 08:21:38;;;;;;;3.22;0.88;;;22.80;99.90;;;23.58;94.92;100607.13;5201490;28;20412;-47
2023/07/12 08:24:10;;;;;;;1.67;1.40;;;22.90;99.90;;;23.82;94.13;100609.31;5201460;28;20057;-47
2023/07/12 08:26:43;;;;;;;1.83;0.88;;;23.10;99.90;;;24.42;92.56;100615.91;5201795;28;20049;-48
2023/07/12 08:29:15;;;;;;;1.85;0.73;;;23.30;99.90;;;24.98;89.87;100605.56;5201778;28;20053;-48
2023/07/12 08:31:49;;;;;;;2.53;0.80;;;23.70;99.60;;;25.55;87.05;100605.69;5201619;28;20037;-47
2023/07/12 08:34:21;;;;;;;1.27;0.73;;;24.00;98.90;;;26.44;83.74;100617.16;5201531;28;20059;-47
2023/07/12 08:36:53;;;;;;;1.25;0.70;;;24.50;98.40;;;26.58;82.93;100624.72;5201406;28;20414;-47
2023/07/12 08:39:26;;;;;;;1.40;0.65;;;24.70;97.90;;;26.64;81.54;100620.97;5218062;28;20050;-47
2023/07/12 08:41:59;;;;;;;1.17;0.60;;;24.90;97.20;;;26.97;80.22;100616.22;5201484;28;20104;-48
2023/07/12 08:44:34;;;;;;;1.27;0.50;;;25.10;96.60;;;27.16;79.22;100624.50;5201486;28;20053;-47
2023/07/12 08:47:17;;;;;;;1.23;0.65;;;25.40;96.10;;;26.78;79.25;100624.91;5201447;28;20057;-48
2023/07/12 08:49:50;;;;;;;0.65;0.40;;;25.30;95.50;;;26.34;80.32;100641.53;5201272;28;20049;-47
2023/07/12 08:52:31;;;;;;;2.78;0.65;;;25.10;95.30;;;25.86;80.29;100634.16;5201247;28;20050;-47
2023/07/12 08:55:15;;;;;;;2.05;0.77;;;24.90;95.00;;;25.31;80.73;100635.78;5198261;28;20064;-47
2023/07/12 08:57:54;;;;;;;0.50;0.50;;;24.50;94.60;;;24.94;81.79;100635.88;5200464;28;20092;-47
2023/07/12 09:00:32;;;;;;;1.35;0.47;;;24.20;94.90;;;24.69;82.37;100630.31;5200964;28;20054;-48
2023/07/12 09:03:09;;;;;;;1.00;0.57;;;24.00;95.00;;;24.60;82.83;100634.97;5201433;28;20065;-47
2023/07/12 09:05:41;;;;;;;1.58;0.70;;;23.90;95.30;;;24.56;82.44;100625.28;5201527;28;20084;-48
2023/07/12 09:08:19;;;;;;;1.55;0.60;;;23.80;95.10;;;25.14;81.41;100628.22;5200945;28;20052;-47
2023/07/12 09:10:56;;;;;;;1.65;0.50;;;24.00;95.20;;;27.33;75.28;100613.19;5193553;28;20064;-48
2023/07/12 09:13:37;;;;;;;1.13;0.43;;;25.00;94.30;;;29.90;68.99;100611.22;5200773;28;20049;-49
2023/07/12 09:16:25;;;;;;;1.05;0.50;;;26.60;92.80;;;32.17;63.21;100609.13;5201025;28;20839;-49
2023/07/12 09:19:14;;;;;;;0.50;0.32;;;28.30;90.40;;;33.89;58.15;100626.50;5200941;28;20056;-49
2023/07/12 09:21:50;;;;;;;1.52;0.47;;;29.80;83.70;;;33.70;56.29;100621.41;5200826;28;20057;-48
2023/07/12 09:24:25;;;;;;;1.95;0.60;;;30.20;77.90;;;32.42;57.20;100635.56;5200987;28;20053;-49
2023/07/12 09:27:05;;;;;;;1.80;0.70;;;29.80;75.50;;;30.60;60.26;100633.78;5200991;28;20418;-48
2023/07/12 09:29:37;;;;;;;1.58;0.60;;;28.80;75.40;;;29.15;62.82;100626.31;5217242;28;20048;-48
2023/07/12 09:32:19;;;;;;;1.45;0.55;;;27.90;76.60;;;28.32;65.35;100634.31;5217266;28;20073;-47
2023/07/12 09:34:57;;;;;;;2.55;0.70;;;27.20;78.60;;;28.10;67.25;100642.34;5201188;28;20561;-48
2023/07/12 09:37:37;;;;;;;2.00;1.00;;;26.80;80.60;;;28.24;67.43;100641.78;5200936;28;20503;-48
2023/07/12 09:40:17;;;;;;;;;;;26.80;81.30;;;27.70;67.08;100640.31;5201643;28;20052;-48
2023/07/12 09:42:58;;;;;;;1.90;0.70;;;26.60;80.20;;;27.06;68.70;100634.69;5200639;28;20371;-47
2023/07/12 09:45:35;;;;;;;1.92;0.80;;;26.20;81.20;;;26.47;69.67;100629.53;5200646;28;20049;-48
2023/07/12 09:48:21;;;;;;;1.38;0.80;;;25.70;81.50;;;26.08;70.17;100640.59;5200714;28;20140;-47
2023/07/12 09:51:11;;;;;;;0.93;0.60;;;25.40;82.00;;;25.85;70.92;100643.09;5192779;28;20045;-48
2023/07/12 09:53:51;;;;;;;2.22;1.00;;;25.10;82.50;;;25.84;72.22;100644.03;5200642;28;20048;-48
2023/07/12 09:56:33;;;;;;;1.35;0.50;;;25.00;84.00;;;26.01;71.34;100639.00;5200574;28;20050;-48
2023/07/12 09:59:27;;;;;;;0.90;0.50;;;25.10;83.90;;;26.25;73.12;100643.56;5199688;28;20041;-54
2023/07/12 10:02:16;;;;;;;1.60;0.70;;;25.30;85.60;;;26.42;71.17;100647.53;5193035;28;20045;-48
2023/07/12 10:04:54;;;;;;;2.92;0.80;;;25.50;84.50;;;26.35;70.62;100640.63;5200383;28;20467;-48
2023/07/12 10:07:43;;;;;;;1.17;0.65;;;25.50;83.10;;;26.40;70.29;100654.72;5200118;28;20305;-48
2023/07/12 10:10:24;;;;;;;3.50;0.80;;;25.50;82.80;;;26.30;71.09;100642.56;5202719;28;20053;-48
2023/07/12 10:13:22;;;;;;;2.63;0.80;;;25.50;83.20;;;26.41;70.46;100648.47;5196157;28;20064;-48
2023/07/12 10:15:55;;;;;;;1.77;0.60;;;25.60;83.10;;;26.56;70.20;100650.63;5204051;28;20144;-48
2023/07/12 10:18:33;;;;;;;1.75;0.52;;;25.70;82.50;;;26.88;69.61;100652.22;5203209;28;20380;-48
2023/07/12 10:21:08;;;;;;;2.17;0.52;;;25.90;82.50;;;27.12;69.02;100642.44;5203601;28;20041;-48
2023/07/12 10:23:52;;;;;;;2.47;0.77;;;26.10;82.20;;;27.27;68.08;100647.28;5203543;28;20399;-48
2023/07/12 10:26:25;;;;;;;1.90;0.68;;;26.30;80.90;;;27.20;68.58;100645.75;5203256;28;20045;-48
2023/07/12 10:29:05;;;;;;;1.17;0.52;;;26.30;80.80;;;27.41;68.03;100659.28;5203882;28;20069;-48
2023/07/12 10:31:48;;;;;;;1.35;0.70;;;26.40;80.60;;;27.42;66.05;100645.81;5202893;28;20139;-49
2023/07/12 10:34:25;;;;;;;1.70;0.57;;;26.50;78.40;;;27.46;66.36;100658.19;5203471;28;20064;-48
2023/07/12 10:37:02;;;;;;;0.80;0.50;;;26.60;78.70;;;27.35;66.54;100651.47;5212745;28;20521;-48
2023/07/12 10:39:36;;;;;;;2.78;0.65;;;26.50;78.50;;;27.20;66.67;100656.44;5203496;28;20038;-48
2023/07/12 10:42:19;;;;;;;2.00;0.70;;;26.40;78.10;;;27.20;67.14;100656.44;5203109;28;20128;-48